createdAt,value
2022-09-12T00:02:23.565Z,17.60
2022-09-12T00:04:51.491Z,17.80
2022-09-12T00:07:19.500Z,17.80
2022-09-12T00:14:29.289Z,17.90
2022-09-12T00:16:58.907Z,17.90
2022-09-12T00:19:26.658Z,17.90
2022-09-12T00:21:54.470Z,17.90
2022-09-12T00:24:21.602Z,17.80
2022-09-12T00:26:48.844Z,17.80
2022-09-12T00:29:19.514Z,17.80
2022-09-12T00:35:57.000Z,17.60
2022-09-12T00:38:24.392Z,17.50
2022-09-12T00:40:51.493Z,17.50
2022-09-12T00:43:37.071Z,17.50
2022-09-12T00:46:35.484Z,17.50
2022-09-12T00:49:06.042Z,17.70
2022-09-12T00:54:34.085Z,17.70
2022-09-12T00:57:05.445Z,17.70
2022-09-12T00:59:39.772Z,17.70
2022-09-12T01:02:08.167Z,17.80
2022-09-12T01:04:38.763Z,17.90
2022-09-12T01:07:08.274Z,17.90
2022-09-12T01:09:38.617Z,17.80
2022-09-12T01:20:52.205Z,17.90
2022-09-12T01:23:54.412Z,17.70
2022-09-12T01:26:57.203Z,17.70
2022-09-12T01:29:55.044Z,17.70
2022-09-12T01:32:35.684Z,17.60
2022-09-12T01:35:12.004Z,17.60
2022-09-12T01:42:51.833Z,17.70
2022-09-12T01:45:26.176Z,17.60
2022-09-12T01:47:59.853Z,17.60
2022-09-12T01:50:31.243Z,17.70
2022-09-12T01:53:03.883Z,17.70
2022-09-12T01:55:36.925Z,17.60
2022-09-12T01:58:08.083Z,17.50
2022-09-12T02:06:18.126Z,17.50
2022-09-12T02:08:49.375Z,17.40
2022-09-12T02:11:16.702Z,17.40
2022-09-12T02:13:47.374Z,17.60
2022-09-12T02:16:19.848Z,17.60
2022-09-12T02:18:52.226Z,17.70
2022-09-12T02:21:22.853Z,17.60
2022-09-12T02:23:58.486Z,17.60
2022-09-12T02:34:10.382Z,17.50
2022-09-12T02:36:49.496Z,17.50
2022-09-12T02:39:19.542Z,17.50
2022-09-12T02:41:47.385Z,17.60
2022-09-12T02:44:14.642Z,17.50
2022-09-12T02:46:45.374Z,17.40
2022-09-12T02:49:14.065Z,17.20
2022-09-12T02:51:41.324Z,17.40
2022-09-12T02:59:18.594Z,17.50
2022-09-12T03:01:59.938Z,17.30
2022-09-12T03:04:48.385Z,17.30
2022-09-12T03:07:22.714Z,17.40
2022-09-12T03:09:59.034Z,17.50
2022-09-12T03:12:43.922Z,17.40
2022-09-12T03:23:38.645Z,17.40
2022-09-12T03:26:13.432Z,17.30
2022-09-12T03:28:51.383Z,17.20
2022-09-12T03:31:20.257Z,17.10
2022-09-12T03:33:49.854Z,17.10
2022-09-12T03:36:28.872Z,17.10
2022-09-12T03:38:57.642Z,17.10
2022-09-12T03:47:09.253Z,17.10
2022-09-12T03:49:38.673Z,17.30
2022-09-12T03:52:06.281Z,17.20
2022-09-12T03:54:34.107Z,17.10
2022-09-12T03:57:01.952Z,17.20
2022-09-12T03:59:29.377Z,17.20
2022-09-12T04:01:57.316Z,17.20
2022-09-12T04:07:05.072Z,17.20
2022-09-12T04:09:32.986Z,17.20
2022-09-12T04:12:00.535Z,17.10
2022-09-12T04:14:28.625Z,17.10
2022-09-12T04:16:56.218Z,16.90
2022-09-12T04:19:23.212Z,16.90
2022-09-12T04:21:50.764Z,16.70
2022-09-12T04:32:00.733Z,16.50
2022-09-12T04:34:32.082Z,16.40
2022-09-12T04:37:01.067Z,16.30
2022-09-12T04:39:28.434Z,16.30
2022-09-12T04:41:56.015Z,16.30
2022-09-12T04:44:23.842Z,16.40
2022-09-12T04:46:52.283Z,16.40
2022-09-12T04:49:20.262Z,16.30
2022-09-12T04:54:27.123Z,16.30
2022-09-12T04:56:55.565Z,16.30
2022-09-12T04:59:23.624Z,16.30
2022-09-12T05:01:50.821Z,16.40
2022-09-12T05:04:18.305Z,16.20
2022-09-12T05:06:46.855Z,16.30
2022-09-12T05:09:15.344Z,16.40
2022-09-12T05:12:04.187Z,16.30
2022-09-12T05:32:22.843Z,16.40
2022-09-12T05:34:50.606Z,16.70
2022-09-12T05:37:17.964Z,16.70
2022-09-12T05:39:45.733Z,16.70
2022-09-12T05:42:13.282Z,16.70
2022-09-12T05:44:40.493Z,16.80
2022-09-12T05:47:08.073Z,16.80
2022-09-12T05:58:03.112Z,16.80
2022-09-12T06:00:33.419Z,16.40
2022-09-12T06:03:01.384Z,16.60
2022-09-12T06:05:28.997Z,16.60
2022-09-12T06:07:57.464Z,16.70
2022-09-12T06:10:25.825Z,16.90
2022-09-12T06:12:53.596Z,16.90
2022-09-12T06:15:22.852Z,17.00
2022-09-12T06:22:54.436Z,17.20
2022-09-12T06:25:22.154Z,17.30
2022-09-12T06:27:49.782Z,17.30
2022-09-12T06:30:25.216Z,17.30
2022-09-12T06:32:53.273Z,17.30
2022-09-12T06:35:21.362Z,17.40
2022-09-12T06:37:48.714Z,17.50
2022-09-12T06:40:17.669Z,17.60
2022-09-12T06:47:50.913Z,17.70
2022-09-12T06:50:18.634Z,17.70
2022-09-12T06:52:51.333Z,17.80
2022-09-12T06:55:20.983Z,17.70
2022-09-12T06:57:50.104Z,17.80
2022-09-12T07:00:18.432Z,17.90
2022-09-12T07:02:46.212Z,17.90
2022-09-12T07:05:14.813Z,18.00
2022-09-12T07:10:40.392Z,18.10
2022-09-12T07:13:07.974Z,18.10
2022-09-12T07:15:36.272Z,18.20
2022-09-12T07:18:03.713Z,18.40
2022-09-12T07:20:32.635Z,18.50
2022-09-12T07:23:00.106Z,18.60
2022-09-12T07:25:28.153Z,18.60
2022-09-12T07:27:56.172Z,18.70
2022-09-12T07:30:24.344Z,18.80
2022-09-12T07:37:57.144Z,19.00
2022-09-12T07:40:24.537Z,19.00
2022-09-12T07:42:51.722Z,19.00
2022-09-12T07:45:19.098Z,19.20
2022-09-12T07:47:46.210Z,19.30
2022-09-12T07:50:13.575Z,19.40
2022-09-12T07:52:41.211Z,19.50
2022-09-12T08:03:25.152Z,19.90
2022-09-12T08:05:55.893Z,20.20
2022-09-12T08:08:23.665Z,20.40
2022-09-12T08:10:57.034Z,20.40
2022-09-12T08:13:24.571Z,20.50
2022-09-12T08:15:51.833Z,20.50
2022-09-12T08:18:18.871Z,20.50
2022-09-12T08:26:21.302Z,21.00
2022-09-12T08:28:49.467Z,21.00
2022-09-12T08:31:18.617Z,21.20
2022-09-12T08:33:46.482Z,21.30
2022-09-12T08:36:15.952Z,21.40
2022-09-12T08:38:45.184Z,21.70
2022-09-12T08:41:22.774Z,21.90
2022-09-12T08:52:23.162Z,22.20
2022-09-12T08:55:08.824Z,22.80
2022-09-12T08:58:20.532Z,22.90
2022-09-12T09:04:32.957Z,23.20
2022-09-12T09:07:20.402Z,23.20
2022-09-12T09:10:17.872Z,23.20
2022-09-12T09:17:50.316Z,23.40
2022-09-12T09:20:29.164Z,23.90
2022-09-12T09:23:01.831Z,24.00
2022-09-12T09:25:43.791Z,24.10
2022-09-12T09:28:18.395Z,24.20
2022-09-12T09:30:45.907Z,24.30
2022-09-12T09:33:23.134Z,24.40
2022-09-12T09:43:06.594Z,24.30
2022-09-12T09:45:34.296Z,24.70
2022-09-12T09:48:15.834Z,24.70
2022-09-12T09:50:44.942Z,24.70
2022-09-12T09:53:26.023Z,24.70
2022-09-12T09:55:56.777Z,24.50
2022-09-12T09:58:34.931Z,24.60
2022-09-12T10:06:31.820Z,24.80
2022-09-12T10:09:26.023Z,25.20
2022-09-12T10:11:55.076Z,25.40
2022-09-12T10:14:37.982Z,25.40
2022-09-12T10:17:33.159Z,25.20
2022-09-12T10:20:21.380Z,25.30
2022-09-12T10:22:51.346Z,25.60
2022-09-12T10:30:27.871Z,25.70
2022-09-12T10:33:04.464Z,25.70
2022-09-12T10:35:44.164Z,25.70
2022-09-12T10:38:19.244Z,25.70
2022-09-12T10:40:55.694Z,25.70
2022-09-12T10:43:29.544Z,25.60
2022-09-12T10:46:24.032Z,25.70
2022-09-12T11:04:29.705Z,26.00
2022-09-12T11:07:10.704Z,26.10
2022-09-12T11:09:46.092Z,26.10
2022-09-12T11:12:20.994Z,26.10
2022-09-12T11:15:00.782Z,26.00
2022-09-12T11:17:42.777Z,25.80
2022-09-12T11:25:35.572Z,25.60
2022-09-12T11:28:29.812Z,25.70
2022-09-12T11:31:13.998Z,25.50
2022-09-12T11:33:43.615Z,25.40
2022-09-12T11:36:26.453Z,25.70
2022-09-12T11:39:03.849Z,25.80
2022-09-12T11:41:35.424Z,25.90
2022-09-12T11:44:10.444Z,25.80
2022-09-12T11:52:07.801Z,26.20
2022-09-12T11:54:40.793Z,26.70
2022-09-12T11:57:15.554Z,26.80
2022-09-12T11:59:47.411Z,26.60
2022-09-12T12:02:23.745Z,26.80
2022-09-12T12:05:03.084Z,26.80
2022-09-12T12:13:11.960Z,27.30
2022-09-12T12:15:47.359Z,27.40
2022-09-12T12:18:19.732Z,27.40
2022-09-12T12:20:47.863Z,27.30
2022-09-12T12:23:27.953Z,27.10
2022-09-12T12:25:58.592Z,27.20
2022-09-12T12:29:10.603Z,27.30
2022-09-12T12:32:34.382Z,27.20
2022-09-12T12:40:32.555Z,27.00
2022-09-12T12:43:15.783Z,27.10
2022-09-12T12:46:05.507Z,26.90
2022-09-12T12:48:56.334Z,26.90
2022-09-12T12:51:57.147Z,26.90
2022-09-12T12:54:30.074Z,27.00
2022-09-12T12:57:18.895Z,26.90
2022-09-12T13:04:51.592Z,26.70
2022-09-12T13:07:34.214Z,26.60
2022-09-12T13:10:03.172Z,26.60
2022-09-12T13:12:35.782Z,26.50
2022-09-12T13:15:25.285Z,26.30
2022-09-12T13:17:53.802Z,26.30
2022-09-12T13:20:28.252Z,26.30
2022-09-12T13:22:56.226Z,26.20
2022-09-12T13:30:35.423Z,26.10
2022-09-12T13:33:24.043Z,26.00
2022-09-12T13:36:18.744Z,25.90
2022-09-12T13:38:58.116Z,25.40
2022-09-12T13:41:42.885Z,25.40
2022-09-12T13:44:12.692Z,25.30
2022-09-12T13:46:42.145Z,25.30
2022-09-12T13:54:24.547Z,25.50
2022-09-12T13:56:51.872Z,25.30
2022-09-12T13:59:41.056Z,25.30
2022-09-12T14:02:22.764Z,25.20
2022-09-12T14:05:09.763Z,25.20
2022-09-12T14:08:14.067Z,25.30
2022-09-12T14:10:57.443Z,25.30
2022-09-12T14:24:26.692Z,25.00
2022-09-12T14:26:56.826Z,25.10
2022-09-12T14:29:25.705Z,25.10
2022-09-12T14:32:04.356Z,25.20
2022-09-12T14:34:34.410Z,25.40
2022-09-12T14:37:07.842Z,25.30
2022-09-12T14:39:40.598Z,25.30
2022-09-12T14:50:03.433Z,25.10
2022-09-12T14:52:33.761Z,25.00
2022-09-12T14:55:20.216Z,25.10
2022-09-12T14:57:50.144Z,25.00
2022-09-12T15:00:26.142Z,25.10
2022-09-12T15:02:53.900Z,25.00
2022-09-12T15:05:49.763Z,24.90
2022-09-12T15:11:44.223Z,24.70
2022-09-12T15:14:14.394Z,24.50
2022-09-12T15:16:45.117Z,24.60
2022-09-12T15:19:14.113Z,24.80
2022-09-12T15:21:41.422Z,24.80
2022-09-12T15:24:09.573Z,24.90
2022-09-12T15:26:37.724Z,24.80
2022-09-12T15:36:30.845Z,24.70
2022-09-12T15:38:59.084Z,24.60
2022-09-12T15:41:31.353Z,24.50
2022-09-12T15:43:58.952Z,24.60
2022-09-12T15:46:26.563Z,24.70
2022-09-12T15:48:55.030Z,24.50
2022-09-12T15:51:23.474Z,24.60
2022-09-12T15:53:52.954Z,24.60
2022-09-12T15:59:45.694Z,24.60
2022-09-12T16:02:13.060Z,24.50
2022-09-12T16:04:41.613Z,24.40
2022-09-12T16:07:09.109Z,24.40
2022-09-12T16:09:37.493Z,24.40
2022-09-12T16:12:05.999Z,24.30
2022-09-12T16:14:36.220Z,24.40
2022-09-12T16:25:12.562Z,24.40
2022-09-12T16:27:40.234Z,24.30
2022-09-12T16:30:10.085Z,24.10
2022-09-12T16:32:40.704Z,24.10
2022-09-12T16:35:09.131Z,24.10
2022-09-12T16:37:36.942Z,24.10
2022-09-12T16:40:05.773Z,24.10
2022-09-12T16:47:10.493Z,24.00
2022-09-12T16:49:38.492Z,23.90
2022-09-12T16:52:08.184Z,23.90
2022-09-12T16:54:35.601Z,24.10
2022-09-12T16:57:04.883Z,24.00
2022-09-12T16:59:32.255Z,23.90
2022-09-12T17:02:00.531Z,23.70
2022-09-12T17:09:32.712Z,23.80
2022-09-12T17:12:00.432Z,23.80
2022-09-12T17:14:28.295Z,23.80
2022-09-12T17:16:55.673Z,23.80
2022-09-12T17:19:25.930Z,23.80
2022-09-12T17:21:53.855Z,23.70
2022-09-12T17:24:22.782Z,23.50
2022-09-12T17:29:34.186Z,23.60
2022-09-12T17:32:02.675Z,23.40
2022-09-12T17:34:30.142Z,23.30
2022-09-12T17:36:57.981Z,23.30
2022-09-12T17:39:25.760Z,23.30
2022-09-12T17:41:57.536Z,23.30
2022-09-12T17:44:25.231Z,23.30
2022-09-12T17:52:27.516Z,23.20
2022-09-12T17:54:55.253Z,23.10
2022-09-12T17:57:22.502Z,23.10
2022-09-12T17:59:51.946Z,23.10
2022-09-12T18:02:19.999Z,23.10
2022-09-12T18:04:48.518Z,23.10
2022-09-12T18:07:19.272Z,23.10
2022-09-12T18:09:49.003Z,23.00
2022-09-12T18:17:21.544Z,22.90
2022-09-12T18:19:53.672Z,22.90
2022-09-12T18:22:21.605Z,22.80
2022-09-12T18:24:50.570Z,22.70
2022-09-12T18:27:18.204Z,22.80
2022-09-12T18:29:58.936Z,22.80
2022-09-12T18:32:34.884Z,22.70
2022-09-12T18:42:54.044Z,22.40
2022-09-12T18:45:21.600Z,22.40
2022-09-12T18:47:49.984Z,22.50
2022-09-12T18:50:18.365Z,22.40
2022-09-12T18:52:46.405Z,22.40
2022-09-12T18:55:18.983Z,22.40
2022-09-12T18:57:51.325Z,22.30
2022-09-12T19:00:21.363Z,22.20
2022-09-12T19:07:55.194Z,22.30
2022-09-12T19:10:23.275Z,22.30
2022-09-12T19:12:51.260Z,22.20
2022-09-12T19:15:20.544Z,22.30
2022-09-12T19:17:48.861Z,22.30
2022-09-12T19:20:16.851Z,22.30
2022-09-12T19:22:45.441Z,22.20
2022-09-12T19:25:15.847Z,22.20
2022-09-12T19:27:45.116Z,22.20
2022-09-12T19:35:19.568Z,22.20
2022-09-12T19:37:54.884Z,22.20
2022-09-12T19:40:23.230Z,22.20
2022-09-12T19:42:50.872Z,22.10
2022-09-12T19:45:20.662Z,22.00
2022-09-12T19:47:48.822Z,21.90
2022-09-12T19:50:17.574Z,21.80
2022-09-12T19:52:48.568Z,21.80
2022-09-12T20:00:22.343Z,21.80
2022-09-12T20:02:54.908Z,21.70
2022-09-12T20:05:22.642Z,21.80
2022-09-12T20:07:50.040Z,21.70
2022-09-12T20:10:17.504Z,21.70
2022-09-12T20:12:45.315Z,21.70
2022-09-12T20:15:13.640Z,21.70
2022-09-12T20:17:41.992Z,21.70
2022-09-12T20:25:11.445Z,21.60
2022-09-12T20:27:38.863Z,21.60
2022-09-12T20:30:07.965Z,21.60
2022-09-12T20:32:35.604Z,21.50
2022-09-12T20:35:03.174Z,21.50
2022-09-12T20:37:31.175Z,21.50
2022-09-12T20:39:59.257Z,21.40
2022-09-12T20:42:30.153Z,21.40
2022-09-12T20:50:02.366Z,21.40
2022-09-12T20:52:30.873Z,21.40
2022-09-12T20:54:58.522Z,21.40
2022-09-12T20:57:28.054Z,21.40
2022-09-12T20:59:55.284Z,21.30
2022-09-12T21:02:22.714Z,21.10
2022-09-12T21:04:50.474Z,21.10
2022-09-12T21:07:20.085Z,21.00
2022-09-12T21:14:53.102Z,21.20
2022-09-12T21:17:20.628Z,21.20
2022-09-12T21:19:48.465Z,21.10
2022-09-12T21:22:16.215Z,21.10
2022-09-12T21:24:43.834Z,21.00
2022-09-12T21:27:11.364Z,21.00
2022-09-12T21:29:40.082Z,20.90
2022-09-12T21:32:14.075Z,20.90
2022-09-12T21:39:48.763Z,21.00
2022-09-12T21:42:16.092Z,20.90
2022-09-12T21:44:44.064Z,20.90
2022-09-12T21:47:12.242Z,20.90
2022-09-12T21:49:40.002Z,20.80
2022-09-12T21:52:07.443Z,20.80
2022-09-12T21:54:35.334Z,20.80
2022-09-12T22:02:08.568Z,20.60
2022-09-12T22:04:36.033Z,20.60
2022-09-12T22:07:09.044Z,20.60
2022-09-12T22:09:36.242Z,20.50
2022-09-12T22:12:04.019Z,20.50
2022-09-12T22:14:31.616Z,20.40
2022-09-12T22:16:59.657Z,20.40
2022-09-12T22:24:32.702Z,20.50
2022-09-12T22:27:04.584Z,20.30
2022-09-12T22:29:32.355Z,20.30
2022-09-12T22:32:01.194Z,20.20
2022-09-12T22:34:31.892Z,20.20
2022-09-12T22:37:06.035Z,20.20
2022-09-12T22:39:38.804Z,20.20
2022-09-12T22:42:21.515Z,20.10
2022-09-12T22:47:27.942Z,20.00
2022-09-12T22:49:56.584Z,20.00
2022-09-12T22:52:24.494Z,20.00
2022-09-12T22:54:52.352Z,19.90
2022-09-12T22:57:19.724Z,19.90
2022-09-12T22:59:47.215Z,19.80
2022-09-12T23:02:15.213Z,19.90
2022-09-12T23:11:58.443Z,19.90
2022-09-12T23:14:25.968Z,19.80
2022-09-12T23:16:53.142Z,19.80
2022-09-12T23:19:20.464Z,19.80
2022-09-12T23:21:52.453Z,19.80
2022-09-12T23:24:19.752Z,19.70
2022-09-12T23:26:49.655Z,19.70
2022-09-12T23:32:07.633Z,19.70
2022-09-12T23:34:34.932Z,19.70
2022-09-12T23:37:02.744Z,19.80
2022-09-12T23:39:34.389Z,19.80
2022-09-12T23:42:02.647Z,19.80
2022-09-12T23:44:30.428Z,19.70
2022-09-12T23:46:58.860Z,19.70
2022-09-12T23:49:27.727Z,19.70
2022-09-12T23:55:41.558Z,19.70
2022-09-12T23:58:24.447Z,19.80
